Time;durP1;ratioP1;P1;durP2;ratioP2;P2;SDS_P1;SDS_P2;PMS_P1;PMS_P2;Temp;Humidity;BMP_temperature;BMP_pressure;BME280_temperature;BME280_humidity;BME280_pressure;Samples;Min_cycle;Max_cycle;Signal;HPM_P1;HPM_P2
2021/04/14 00:00:30;;;;;;;3.40;3.10;;;;;;;1.98;72.48;99884.22;4871879;28;103247;-80
2021/04/14 00:02:57;;;;;;;5.33;3.30;;;;;;;1.96;72.66;99885.16;4872261;28;104932;-79
2021/04/14 00:05:30;;;;;;;3.47;3.17;;;;;;;1.94;72.76;99886.94;4871000;28;103888;-77
2021/04/14 00:07:59;;;;;;;5.73;3.53;;;;;;;1.87;72.68;99885.31;4871961;28;103178;-77
2021/04/14 00:10:30;;;;;;;6.57;3.50;;;;;;;1.77;73.74;99883.78;4871670;28;103118;-78
2021/04/14 00:12:57;;;;;;;8.23;3.80;;;;;;;1.70;74.28;99886.50;4871820;28;104807;-80
2021/04/14 00:15:28;;;;;;;5.00;3.80;;;;;;;1.63;74.36;99884.00;4870711;28;104547;-77
2021/04/14 00:17:55;;;;;;;4.10;3.00;;;;;;;1.64;74.36;99877.91;4867647;28;103237;-79
2021/04/14 00:20:23;;;;;;;5.93;3.93;;;;;;;1.26;76.11;99865.56;4885529;28;102678;-77
2021/04/14 00:22:50;;;;;;;4.97;3.77;;;;;;;1.37;75.72;99868.84;4852232;28;104932;-77
2021/04/14 00:25:23;;;;;;;4.90;3.60;;;;;;;1.51;74.80;99868.59;4871178;28;103673;-77
2021/04/14 00:27:50;;;;;;;3.97;3.50;;;;;;;1.38;75.67;99870.53;4871883;28;102998;-78
2021/04/14 00:30:18;;;;;;;3.57;2.80;;;;;;;1.44;75.07;99875.66;4871962;28;103327;-77
2021/04/14 00:32:45;;;;;;;3.53;2.93;;;;;;;1.41;75.49;99870.50;4871600;28;104006;-78
2021/04/14 00:35:13;;;;;;;6.83;4.30;;;;;;;1.39;75.37;99867.06;4871784;28;103705;-77
2021/04/14 00:37:40;;;;;;;6.13;3.97;;;;;;;1.37;75.51;99873.19;4870583;28;102896;-79
2021/04/14 00:40:11;;;;;;;6.37;4.07;;;;;;;1.02;77.70;99873.75;4871559;28;103377;-78
2021/04/14 00:42:39;;;;;;;5.80;3.73;;;;;;;1.22;76.99;99869.09;4872071;28;104071;-77
2021/04/14 00:45:08;;;;;;;4.70;3.60;;;;;;;0.95;78.13;99874.75;4871379;28;103216;-78
2021/04/14 00:47:35;;;;;;;6.57;3.90;;;;;;;0.54;80.10;99883.13;4866772;28;103347;-76
2021/04/14 00:50:06;;;;;;;3.57;3.27;;;;;;;0.94;78.06;99870.41;4878465;28;103007;-76
2021/04/14 00:52:33;;;;;;;3.47;2.90;;;;;;;1.20;76.43;99863.06;4838397;28;105452;-76
2021/04/14 00:55:00;;;;;;;4.77;4.27;;;;;;;1.27;76.71;99862.06;4871274;28;103727;-77
2021/04/14 00:57:27;;;;;;;5.63;4.00;;;;;;;0.83;78.99;99864.50;4871675;28;103084;-77
2021/04/14 00:59:55;;;;;;;6.33;4.40;;;;;;;0.58;80.71;99864.88;4871199;28;103345;-76
2021/04/14 01:02:22;;;;;;;6.20;4.30;;;;;;;0.43;81.08;99869.41;4873451;28;104609;-76
2021/04/14 01:04:49;;;;;;;4.77;3.90;;;;;;;0.60;80.34;99859.63;4886516;28;104344;-77
2021/04/14 01:07:16;;;;;;;4.00;3.60;;;;;;;0.68;80.02;99854.31;4854629;28;103284;-76
2021/04/14 01:09:43;;;;;;;5.23;3.70;;;;;;;0.80;78.72;99854.13;4874993;28;103076;-76
2021/04/14 01:12:11;;;;;;;5.03;3.63;;;;;;;0.96;77.78;99855.63;4889728;28;104503;-77
2021/04/14 01:14:38;;;;;;;4.33;3.60;;;;;;;1.08;76.90;99839.81;4882438;28;104628;-76
2021/04/14 01:17:06;;;;;;;4.30;3.20;;;;;;;1.18;76.11;99841.38;4845976;28;103353;-77
2021/04/14 01:19:33;;;;;;;5.50;3.17;;;;;;;1.26;75.76;99844.72;4872267;28;103109;-76
2021/04/14 01:22:01;;;;;;;3.57;2.90;;;;;;;1.24;75.84;99845.63;4866149;28;105221;-76
2021/04/14 01:24:28;;;;;;;5.73;4.27;;;;;;;1.07;76.94;99838.94;4871029;28;104515;-76
2021/04/14 01:26:57;;;;;;;6.50;4.40;;;;;;;0.99;77.28;99840.81;4853751;28;103015;-76
2021/04/14 01:29:24;;;;;;;8.60;3.47;;;;;;;0.89;77.98;99848.81;4870841;28;103018;-76
2021/04/14 01:31:51;;;;;;;5.87;3.73;;;;;;;0.97;77.60;99852.16;4870291;28;103318;-77
2021/04/14 01:34:19;;;;;;;4.63;3.50;;;;;;;0.94;77.66;99844.38;4871130;28;103770;-76
2021/04/14 01:36:47;;;;;;;4.43;3.40;;;;;;;0.81;79.25;99850.66;4885051;28;103715;-77
2021/04/14 01:39:15;;;;;;;3.27;2.70;;;;;;;0.98;77.84;99846.06;4890012;28;102833;-76
2021/04/14 01:41:43;;;;;;;3.83;2.97;;;;;;;1.08;77.06;99845.03;4867270;28;104276;-79
2021/04/14 01:44:11;;;;;;;4.93;3.50;;;;;;;1.01;76.88;99839.03;4869617;28;104911;-76
2021/04/14 01:46:38;;;;;;;5.43;3.77;;;;;;;0.97;76.46;99842.59;4867634;28;103655;-76
2021/04/14 01:49:07;;;;;;;4.10;3.60;;;;;;;0.92;77.21;99838.34;4868719;28;102961;-76
2021/04/14 01:51:35;;;;;;;5.23;3.33;;;;;;;0.40;81.06;99836.50;4868461;28;104989;-76
2021/04/14 01:54:03;;;;;;;5.80;3.70;;;;;;;0.51;79.41;99842.41;4851678;29;104004;-76
2021/04/14 01:56:32;;;;;;;5.20;3.37;;;;;;;-0.03;82.57;99848.34;4868880;28;102954;-76
2021/04/14 01:58:59;;;;;;;7.23;3.80;;;;;;;-0.06;83.06;99848.38;4870082;28;103266;-78
2021/04/14 02:01:26;;;;;;;5.97;3.33;;;;;;;0.20;82.24;99843.69;4868812;28;103349;-77
2021/04/14 02:03:53;;;;;;;4.10;3.23;;;;;;;0.33;81.11;99837.47;4880339;28;105047;-76
2021/04/14 02:06:20;;;;;;;4.17;3.20;;;;;;;0.52;79.69;99844.16;4878593;28;103312;-78
2021/04/14 02:08:47;;;;;;;3.23;2.87;;;;;;;0.61;78.82;99842.28;4851481;29;102972;-77
2021/04/14 02:11:16;;;;;;;4.47;3.10;;;;;;;0.69;78.51;99838.69;4848228;28;105840;-77
2021/04/14 02:13:44;;;;;;;4.90;3.00;;;;;;;0.55;79.99;99838.91;4870022;28;104073;-78
2021/04/14 02:16:16;;;;;;;4.00;3.50;;;;;;;0.32;80.66;99848.75;4846215;28;103063;-77
2021/04/14 02:18:43;;;;;;;3.43;2.50;;;;;;;0.47;79.70;99845.97;4849139;28;103399;-76
2021/04/14 02:21:11;;;;;;;2.77;2.27;;;;;;;0.62;78.44;99842.25;4850316;29;104475;-77
2021/04/14 02:23:41;;;;;;;5.07;4.13;;;;;;;0.45;79.09;99842.50;4835446;29;103179;-77
2021/04/14 02:26:10;;;;;;;4.30;3.33;;;;;;;0.50;79.43;99837.25;4843750;29;103013;-76
2021/04/14 02:28:37;;;;;;;4.97;3.47;;;;;;;0.45;80.39;99846.84;4851068;29;103191;-76
2021/04/14 02:31:08;;;;;;;4.03;2.80;;;;;;;0.53;79.20;99830.25;4851060;29;103783;-76
2021/04/14 02:33:35;;;;;;;4.23;2.80;;;;;;;0.44;79.10;99845.13;4850321;29;103476;-79
2021/04/14 02:36:03;;;;;;;3.17;2.87;;;;;;;0.35;81.06;99840.03;4851237;29;102887;-76
2021/04/14 02:38:30;;;;;;;5.37;2.87;;;;;;;0.37;80.00;99833.94;4851058;29;102792;-76
2021/04/14 02:40:57;;;;;;;5.37;2.70;;;;;;;0.36;79.89;99837.44;4851248;29;103875;-77
2021/04/14 02:43:24;;;;;;;3.90;3.00;;;;;;;0.20;80.84;99828.09;4850916;29;103122;-80
2021/04/14 02:45:51;;;;;;;4.27;2.87;;;;;;;0.45;80.26;99833.84;4837814;29;102938;-76
2021/04/14 02:48:19;;;;;;;4.00;3.03;;;;;;;0.45;78.93;99826.06;4822799;28;103351;-78
2021/04/14 02:50:46;;;;;;;3.77;3.20;;;;;;;0.43;78.94;99828.66;4858436;28;110213;-76
2021/04/14 02:53:13;;;;;;;4.67;3.77;;;;;;;0.37;79.06;99818.34;4850888;29;103962;-76
2021/04/14 02:55:41;;;;;;;3.80;3.40;;;;;;;0.31;79.73;99823.63;4851172;29;102876;-76
2021/04/14 02:58:08;;;;;;;3.37;3.10;;;;;;;0.34;79.75;99820.97;4850146;29;103594;-77
2021/04/14 03:00:35;;;;;;;3.50;3.20;;;;;;;0.29;79.71;99820.19;4849275;29;105115;-79
2021/04/14 03:03:03;;;;;;;3.03;2.47;;;;;;;0.33;79.57;99821.00;4850176;29;103739;-76
2021/04/14 03:05:33;;;;;;;5.33;3.07;;;;;;;0.42;78.79;99821.72;4850655;29;103035;-76
2021/04/14 03:08:01;;;;;;;4.03;3.03;;;;;;;0.40;78.67;99817.44;4846470;28;103451;-76
2021/04/14 03:10:29;;;;;;;3.30;3.00;;;;;;;0.45;78.32;99810.44;4878840;28;105741;-76
2021/04/14 03:12:56;;;;;;;4.20;2.90;;;;;;;0.51;77.65;99810.34;4888205;28;109750;-77
2021/04/14 03:15:27;;;;;;;7.67;4.40;;;;;;;0.38;78.78;99814.00;4869294;28;102792;-76
2021/04/14 03:17:54;;;;;;;8.33;4.10;;;;;;;-0.11;81.94;99804.25;4865507;28;102835;-76
2021/04/14 03:20:22;;;;;;;6.73;3.70;;;;;;;-0.05;81.52;99809.38;4874884;28;103413;-77
2021/04/14 03:22:52;;;;;;;5.13;4.30;;;;;;;-0.05;81.57;99803.31;4857897;28;103678;-79
2021/04/14 03:25:20;;;;;;;4.50;3.47;;;;;;;0.08;80.91;99810.09;4885285;28;103242;-80
2021/04/14 03:27:48;;;;;;;4.63;3.77;;;;;;;0.07;80.23;99797.09;4879617;28;103059;-77
2021/04/14 03:30:16;;;;;;;4.00;3.53;;;;;;;0.07;80.80;99800.56;4881331;28;104206;-77
2021/04/14 03:32:43;;;;;;;5.17;4.07;;;;;;;-0.11;81.81;99798.19;4872558;28;103730;-77
2021/04/14 03:35:12;;;;;;;6.97;4.60;;;;;;;-0.14;82.56;99799.06;4873285;28;103056;-79
2021/04/14 03:37:39;;;;;;;6.17;4.07;;;;;;;-0.28;82.41;99790.59;4870577;28;102690;-77
2021/04/14 03:40:09;;;;;;;3.93;3.30;;;;;;;-0.22;82.57;99792.25;4836805;28;109234;-77
2021/04/14 03:42:37;;;;;;;4.50;3.60;;;;;;;-0.15;82.29;99794.78;4842621;28;103772;-76
2021/04/14 03:45:11;;;;;;;6.70;3.63;;;;;;;-0.39;83.17;99796.81;4857493;28;103299;-76
2021/04/14 03:47:39;;;;;;;3.97;3.40;;;;;;;-0.31;83.24;99794.97;4848022;28;102577;-85
2021/04/14 03:50:10;;;;;;;4.53;3.20;;;;;;;-0.28;82.83;99789.75;4872441;28;103859;-78
2021/04/14 03:52:37;;;;;;;3.93;3.07;;;;;;;-0.67;83.85;99794.47;4879868;28;104271;-78
2021/04/14 03:55:06;;;;;;;4.77;2.93;;;;;;;-0.37;83.27;99790.72;4874728;28;102953;-79
2021/04/14 03:57:34;;;;;;;4.93;2.90;;;;;;;-0.50;84.10;99793.44;4865814;28;103397;-78
2021/04/14 04:00:01;;;;;;;3.10;2.80;;;;;;;-0.40;82.44;99795.94;4867042;28;104536;-78
2021/04/14 04:02:38;;;;;;;3.93;2.77;;;;;;;-0.73;84.92;99802.31;4870158;28;104859;-77
2021/04/14 04:05:07;;;;;;;4.23;3.10;;;;;;;-0.45;82.98;99797.72;4869947;28;103009;-78
2021/04/14 04:07:34;;;;;;;3.37;2.47;;;;;;;-0.95;86.04;99798.22;4869534;28;102749;-78
2021/04/14 04:10:01;;;;;;;3.03;2.47;;;;;;;-0.89;84.94;99802.47;4868935;28;104005;-80
2021/04/14 04:12:28;;;;;;;3.20;2.40;;;;;;;-0.82;85.78;99805.03;4869495;28;104572;-78
2021/04/14 04:14:58;;;;;;;4.80;3.70;;;;;;;-0.96;84.90;99809.47;4869847;28;103300;-79
2021/04/14 04:17:25;;;;;;;4.20;2.80;;;;;;;-0.87;85.67;99805.94;4864956;28;103730;-79
2021/04/14 04:19:52;;;;;;;8.07;2.97;;;;;;;-0.85;84.99;99812.84;4869421;28;102915;-78
2021/04/14 04:22:21;;;;;;;5.97;3.37;;;;;;;-0.87;84.01;99804.19;4866078;28;103157;-78
2021/04/14 04:24:49;;;;;;;5.40;3.37;;;;;;;-0.84;85.98;99811.94;4877699;28;102969;-77
2021/04/14 04:27:16;;;;;;;5.57;3.37;;;;;;;-0.78;84.68;99808.44;4879185;28;102926;-78
2021/04/14 04:29:43;;;;;;;4.17;3.60;;;;;;;-0.97;86.65;99806.88;4867019;28;103769;-79
2021/04/14 04:32:11;;;;;;;5.73;3.77;;;;;;;-1.13;87.30;99806.16;4862150;28;104194;-79
2021/04/14 04:34:39;;;;;;;7.90;3.40;;;;;;;-1.04;86.88;99811.28;4869605;28;103469;-79
2021/04/14 04:37:06;;;;;;;3.53;2.90;;;;;;;-0.79;86.32;99815.38;4869527;28;103200;-81
2021/04/14 04:39:33;;;;;;;3.40;2.80;;;;;;;-0.97;86.71;99812.06;4857401;28;104069;-77
2021/04/14 04:42:00;;;;;;;4.00;3.10;;;;;;;-0.93;85.98;99813.78;4850468;28;104702;-79
2021/04/14 04:44:27;;;;;;;2.67;2.17;;;;;;;-0.72;85.32;99817.03;4850166;28;103801;-79
2021/04/14 04:46:54;;;;;;;3.47;2.80;;;;;;;-0.57;83.50;99825.53;4859230;28;103550;-77
2021/04/14 04:49:22;;;;;;;4.60;3.10;;;;;;;-0.50;83.59;99820.25;4871007;28;103961;-80
2021/04/14 04:51:49;;;;;;;4.00;3.33;;;;;;;-0.57;83.41;99818.63;4867452;28;103802;-78
2021/04/14 04:54:16;;;;;;;4.30;3.40;;;;;;;-0.65;84.34;99820.44;4868331;28;104180;-78
2021/04/14 04:56:43;;;;;;;5.93;3.37;;;;;;;-0.73;85.79;99820.50;4868501;28;103295;-79
2021/04/14 04:59:11;;;;;;;6.10;3.57;;;;;;;-0.78;85.60;99822.28;4867329;28;104497;-79
2021/04/14 05:01:38;;;;;;;6.93;3.50;;;;;;;-0.68;85.38;99826.53;4867349;28;103928;-77
2021/04/14 05:04:05;;;;;;;5.60;3.70;;;;;;;-0.61;84.43;99828.16;4868316;28;103134;-80
2021/04/14 05:06:33;;;;;;;5.40;3.83;;;;;;;-0.74;85.20;99834.38;4867628;28;103385;-78
2021/04/14 05:09:00;;;;;;;4.10;3.53;;;;;;;-0.66;85.77;99832.56;4882472;28;103807;-87
2021/04/14 05:11:27;;;;;;;4.60;3.23;;;;;;;-0.40;84.98;99834.03;4892614;28;102119;-88
2021/04/14 05:26:47;;;;;;;5.90;4.10;;;;;;;0.03;82.47;99837.00;4903745;23;106201;-83
2021/04/14 05:29:15;;;;;;;5.07;3.93;;;;;;;0.14;81.45;99846.38;4810189;29;101591;-84
2021/04/14 05:43:39;;;;;;;7.53;4.70;;;;;;;-0.02;84.61;99850.03;5474165;23;106843;-87
2021/04/14 05:49:09;;;;;;;7.33;5.43;;;;;;;0.37;82.79;99838.28;5687599;23;105466;-87
2021/04/14 05:51:37;;;;;;;7.97;5.77;;;;;;;0.50;81.94;99842.44;5116368;23;103731;-83
2021/04/14 05:54:06;;;;;;;11.83;9.00;;;;;;;0.17;82.44;99856.72;4867470;29;104159;-83
2021/04/14 06:54:33;;;;;;;5.17;3.37;;;;;;;3.12;72.23;99845.19;4808735;29;103944;-80
2021/04/14 06:57:05;;;;;;;7.03;4.20;;;;;;;2.59;72.46;99847.31;4805896;29;102762;-80
2021/04/14 06:59:36;;;;;;;5.53;4.20;;;;;;;3.12;73.65;99863.47;4818845;29;102830;-79
2021/04/14 07:02:07;;;;;;;7.60;4.70;;;;;;;3.01;72.71;99844.59;4817461;29;102511;-79
2021/04/14 07:04:44;;;;;;;8.43;4.70;;;;;;;2.83;74.16;99861.56;4783629;29;103400;-79
2021/04/14 07:07:19;;;;;;;8.80;4.40;;;;;;;2.91;74.39;99852.66;4819470;29;103003;-81
2021/04/14 07:09:50;;;;;;;7.03;4.37;;;;;;;3.71;73.13;99859.34;4819979;29;103241;-80
2021/04/14 07:12:21;;;;;;;7.80;4.00;;;;;;;3.52;73.04;99853.75;4804382;29;102221;-80
2021/04/14 07:14:52;;;;;;;10.80;5.60;;;;;;;3.34;72.69;99854.25;4806566;29;102165;-80
2021/04/14 07:17:33;;;;;;;5.80;4.83;;;;;;;3.83;74.60;99854.69;4814162;29;103247;-80
2021/04/14 07:20:19;;;;;;;9.73;5.60;;;;;;;3.71;72.49;99849.75;4824349;29;103295;-81
2021/04/14 07:23:11;;;;;;;8.63;5.80;;;;;;;3.95;72.29;99854.34;4824064;29;102951;-81
2021/04/14 07:25:48;;;;;;;10.27;6.10;;;;;;;3.88;71.95;99850.16;4815767;29;102640;-79
2021/04/14 07:28:36;;;;;;;8.60;5.33;;;;;;;4.62;71.01;99836.69;4824309;29;102903;-80
2021/04/14 07:31:11;;;;;;;6.70;5.40;;;;;;;4.93;68.99;99836.59;4821872;29;102597;-81
2021/04/14 07:33:50;;;;;;;7.20;5.47;;;;;;;4.81;67.18;99837.84;4829182;29;102161;-81
2021/04/14 07:36:28;;;;;;;12.13;5.80;;;;;;;4.37;68.86;99839.19;4836983;29;102890;-80
2021/04/14 07:39:11;;;;;;;8.47;5.10;;;;;;;4.88;67.58;99844.63;4821393;29;102919;-81
2021/04/14 07:41:50;;;;;;;7.17;5.30;;;;;;;4.80;66.78;99838.72;4821878;29;102760;-80
2021/04/14 07:44:28;;;;;;;7.10;4.80;;;;;;;5.12;65.94;99843.81;4805115;29;102591;-80
2021/04/14 07:46:57;;;;;;;6.13;4.27;;;;;;;4.98;67.25;99839.94;4805072;29;102647;-80
2021/04/14 07:49:31;;;;;;;6.17;3.97;;;;;;;5.72;64.89;99835.69;4824242;29;102748;-81
2021/04/14 07:52:02;;;;;;;6.63;5.20;;;;;;;5.82;65.53;99834.44;4804966;29;102873;-80
2021/04/14 07:54:40;;;;;;;5.70;4.50;;;;;;;6.98;64.51;99839.69;4830558;29;103033;-80
2021/04/14 07:57:08;;;;;;;7.27;3.73;;;;;;;7.18;61.38;99832.78;4851588;23;102305;-93
2021/04/14 07:59:38;;;;;;;6.67;3.97;;;;;;;6.02;61.81;99832.91;4874244;28;101988;-93
2021/04/14 08:02:09;;;;;;;6.73;4.03;;;;;;;7.04;60.30;99821.97;4873968;28;102709;-93
2021/04/14 08:04:40;;;;;;;5.40;3.67;;;;;;;7.27;57.81;99838.50;4874402;28;101806;-93
2021/04/14 08:07:14;;;;;;;7.17;4.40;;;;;;;6.82;60.04;99837.75;4869437;28;101873;-93
2021/04/14 08:09:54;;;;;;;4.63;3.13;;;;;;;8.10;58.28;99828.78;4869470;28;102116;-92
2021/04/14 08:12:27;;;;;;;4.50;3.07;;;;;;;6.72;58.83;99831.97;4873687;28;101876;-91
2021/04/14 08:15:07;;;;;;;6.20;3.20;;;;;;;7.80;59.54;99824.88;4879073;28;101642;-90
2021/04/14 08:17:35;;;;;;;4.37;3.40;;;;;;;8.26;55.10;99829.81;4853048;28;101918;-88
2021/04/14 08:20:06;;;;;;;5.33;3.13;;;;;;;8.42;54.70;99820.31;4869172;28;102844;-87
2021/04/14 08:22:34;;;;;;;5.50;2.70;;;;;;;9.21;53.43;99819.16;4875992;28;101898;-86
2021/04/14 08:25:06;;;;;;;2.60;2.40;;;;;;;10.03;53.40;99818.47;4884217;28;102328;-88
2021/04/14 08:27:47;;;;;;;4.75;2.40;;;;;;;8.97;54.45;99808.03;5093599;23;103967;31
2021/04/14 08:49:23;;;;;;;6.43;2.70;;;;;;;11.03;50.22;99808.53;5018601;23;104543;-79
2021/04/14 08:51:53;;;;;;;3.93;3.03;;;;;;;8.83;52.85;99807.84;4798585;29;104210;-79
2021/04/14 08:54:32;;;;;;;6.33;3.23;;;;;;;9.45;53.01;99803.91;4806123;29;104396;-79
2021/04/14 08:56:59;;;;;;;3.83;2.90;;;;;;;10.42;51.44;99800.50;4809939;29;103261;-77
2021/04/14 08:59:28;;;;;;;3.20;2.90;;;;;;;9.50;54.20;99802.75;4792402;29;103666;-79
2021/04/14 09:01:56;;;;;;;4.50;2.73;;;;;;;9.42;52.04;99801.44;4815908;29;103717;-77
2021/04/14 09:04:25;;;;;;;3.93;3.17;;;;;;;8.45;53.44;99800.91;4806946;29;106219;-77
2021/04/14 09:06:54;;;;;;;5.17;3.10;;;;;;;8.46;53.96;99795.56;4804000;29;104348;-77
2021/04/14 09:09:24;;;;;;;5.97;2.77;;;;;;;8.49;55.01;99795.41;4809760;29;103331;-78
2021/04/14 09:12:01;;;;;;;6.37;2.93;;;;;;;8.22;54.49;99790.53;4807359;29;103306;-77
2021/04/14 09:14:30;;;;;;;3.47;3.17;;;;;;;8.51;54.07;99783.03;4821888;29;106066;-77
2021/04/14 09:17:01;;;;;;;5.73;3.03;;;;;;;9.82;51.72;99788.75;4809771;29;105226;-77
2021/04/14 09:19:36;;;;;;;3.67;2.77;;;;;;;8.71;52.92;99777.66;4814394;29;102974;-77
2021/04/14 09:22:20;;;;;;;4.30;2.80;;;;;;;9.90;51.89;99783.94;4803723;29;103059;-77
2021/04/14 09:24:50;;;;;;;3.60;2.60;;;;;;;9.98;50.07;99782.66;4798668;29;104801;-78
2021/04/14 09:27:31;;;;;;;4.27;2.23;;;;;;;9.82;49.79;99777.34;4812293;29;103834;-77
2021/04/14 09:30:08;;;;;;;3.97;3.00;;;;;;;8.90;51.16;99779.44;4808645;29;104398;-78
2021/04/14 09:32:39;;;;;;;7.07;3.27;;;;;;;10.55;51.60;99768.16;4811833;29;103474;-77
2021/04/14 09:35:18;;;;;;;4.13;3.27;;;;;;;10.34;49.15;99765.75;4817886;29;104992;-78
2021/04/14 09:37:46;;;;;;;5.53;3.57;;;;;;;10.31;50.49;99770.31;4807796;29;103273;-77
2021/04/14 09:40:13;;;;;;;4.20;2.90;;;;;;;10.09;49.90;99762.69;4810428;29;103966;-76
2021/04/14 09:42:43;;;;;;;6.00;3.13;;;;;;;10.25;48.17;99760.09;4810222;29;103593;-76
2021/04/14 09:45:30;;;;;;;4.43;3.00;;;;;;;9.98;48.86;99757.13;4801955;29;103429;-76
2021/04/14 09:47:59;;;;;;;4.40;2.83;;;;;;;9.80;49.78;99764.22;4795743;29;103747;-77
2021/04/14 09:50:40;;;;;;;4.60;2.60;;;;;;;10.08;46.53;99757.47;4786427;29;103752;-76
2021/04/14 09:53:21;;;;;;;3.63;2.43;;;;;;;11.37;47.17;99751.03;4789387;29;103243;-76
2021/04/14 09:55:53;;;;;;;2.50;2.27;;;;;;;10.77;49.65;99748.34;4755927;29;106486;-78
2021/04/14 09:58:25;;;;;;;3.90;2.53;;;;;;;11.39;46.99;99739.44;4786873;29;105994;-77
2021/04/14 10:00:56;;;;;;;2.87;2.57;;;;;;;11.39;45.65;99741.22;4766789;29;103480;-80
2021/04/14 10:03:31;;;;;;;5.83;3.30;;;;;;;11.25;44.41;99735.91;4790224;29;103344;-79
2021/04/14 10:06:08;;;;;;;6.07;2.63;;;;;;;13.17;43.45;99729.88;4786888;29;104600;-77
2021/04/14 10:08:37;;;;;;;3.63;2.50;;;;;;;11.14;44.15;99727.72;4788998;29;105011;-78
2021/04/14 10:11:04;;;;;;;3.63;1.77;;;;;;;9.14;47.10;99731.63;4767269;29;103099;-77
2021/04/14 10:13:33;;;;;;;4.07;2.10;;;;;;;8.79;46.66;99735.13;4790199;29;103228;-78
2021/04/14 10:16:02;;;;;;;3.00;2.30;;;;;;;9.55;46.60;99726.84;4785232;29;103816;-78
2021/04/14 10:18:31;;;;;;;4.10;2.37;;;;;;;8.73;48.24;99730.16;4785552;29;103773;-79
2021/04/14 10:21:14;;;;;;;4.23;2.27;;;;;;;9.59;49.43;99723.13;4784855;29;103167;-76
2021/04/14 10:23:42;;;;;;;3.60;2.43;;;;;;;10.27;46.88;99715.97;4781652;29;103054;-77
2021/04/14 10:26:11;;;;;;;4.93;2.20;;;;;;;11.13;46.74;99723.38;4788891;29;105577;-76
2021/04/14 10:28:42;;;;;;;4.40;2.60;;;;;;;10.54;47.12;99713.56;4792098;29;103921;-77
2021/04/14 10:31:13;;;;;;;3.57;2.73;;;;;;;11.26;45.51;99708.47;4794055;29;102934;-77
2021/04/14 10:33:42;;;;;;;6.33;2.43;;;;;;;9.64;50.43;99718.47;4788259;29;103668;-77
2021/04/14 10:36:15;;;;;;;4.43;2.40;;;;;;;9.62;51.33;99725.63;4790428;29;103902;-79
2021/04/14 10:38:44;;;;;;;3.90;2.40;;;;;;;9.61;51.32;99731.81;4790972;29;104179;-76
2021/04/14 10:41:22;;;;;;;3.50;2.37;;;;;;;8.55;52.82;99734.56;4791544;29;103642;-74
2021/04/14 10:43:49;;;;;;;3.50;2.40;;;;;;;8.32;55.08;99729.50;4791821;29;103003;-78
2021/04/14 10:46:26;;;;;;;3.67;2.20;;;;;;;8.25;54.97;99729.84;4788506;29;103318;-81
2021/04/14 10:48:59;;;;;;;6.13;2.00;;;;;;;8.80;52.18;99731.56;4787864;29;104409;-77
2021/04/14 10:51:30;;;;;;;5.07;2.27;;;;;;;9.37;52.05;99725.19;4806696;29;103069;-80
2021/04/14 10:54:00;;;;;;;4.37;2.47;;;;;;;9.22;53.17;99723.31;4807759;29;103478;-77
2021/04/14 10:56:30;;;;;;;3.33;2.50;;;;;;;9.87;51.76;99718.09;4809474;29;105640;-78
2021/04/14 10:59:04;;;;;;;3.93;2.43;;;;;;;8.92;49.57;99709.91;4808963;29;105680;-81
2021/04/14 11:01:35;;;;;;;3.27;1.90;;;;;;;9.48;47.59;99712.28;4808532;29;103210;-81
2021/04/14 11:04:20;;;;;;;2.37;1.90;;;;;;;9.84;46.66;99713.00;4809771;29;103064;-81
2021/04/14 11:06:53;;;;;;;2.03;1.67;;;;;;;9.56;46.91;99702.19;4804669;29;103635;-80
2021/04/14 11:09:22;;;;;;;2.23;1.90;;;;;;;8.93;47.66;99705.47;4809370;29;104464;-80
2021/04/14 11:11:50;;;;;;;2.83;2.00;;;;;;;8.24;48.58;99700.03;4808886;29;103286;-79
2021/04/14 11:14:19;;;;;;;3.43;1.90;;;;;;;8.85;49.42;99705.84;4809762;29;103141;-80
2021/04/14 11:16:48;;;;;;;2.73;2.33;;;;;;;8.92;51.08;99703.78;4806685;29;105263;-82
2021/04/14 11:19:19;;;;;;;2.47;1.87;;;;;;;9.87;50.21;99691.72;4812907;29;103774;-81
2021/04/14 11:21:46;;;;;;;3.97;1.90;;;;;;;10.24;48.73;99706.44;4808647;29;102913;-81
2021/04/14 11:24:17;;;;;;;4.33;2.50;;;;;;;10.13;47.75;99692.13;4803228;29;103152;-81
2021/04/14 11:26:50;;;;;;;5.00;2.03;;;;;;;10.55;48.54;99691.50;4789664;29;106058;-82
2021/04/14 11:29:23;;;;;;;2.90;2.03;;;;;;;10.69;48.90;99697.72;4800884;29;104516;-82
2021/04/14 11:31:52;;;;;;;2.80;1.83;;;;;;;10.59;48.38;99691.25;4809157;29;103410;-83
2021/04/14 11:34:22;;;;;;;4.20;2.63;;;;;;;9.69;48.54;99686.53;4797731;29;103396;-82
2021/04/14 11:37:03;;;;;;;4.23;2.30;;;;;;;9.57;47.90;99693.31;4808139;29;104599;-83
2021/04/14 11:39:35;;;;;;;3.67;2.17;;;;;;;10.34;48.63;99685.63;4809494;29;103891;-82
2021/04/14 11:42:06;;;;;;;4.23;2.30;;;;;;;10.80;47.61;99683.88;4805779;29;104805;-82
2021/04/14 11:44:44;;;;;;;3.10;2.70;;;;;;;9.38;47.58;99681.16;4809791;29;102798;-82
2021/04/14 11:47:24;;;;;;;4.07;2.37;;;;;;;10.36;47.84;99678.47;4800388;29;104464;-83
2021/04/14 11:49:57;;;;;;;3.07;2.17;;;;;;;10.14;47.95;99677.97;4798324;29;103892;-82
2021/04/14 11:52:32;;;;;;;3.73;2.30;;;;;;;9.45;47.85;99677.31;4794172;29;103367;-83
2021/04/14 11:55:12;;;;;;;4.87;2.43;;;;;;;10.28;47.76;99675.41;4794893;29;103295;-83
2021/04/14 11:57:41;;;;;;;3.63;2.50;;;;;;;9.62;47.81;99690.47;4777300;29;106240;-85
2021/04/14 12:00:27;;;;;;;3.80;2.50;;;;;;;7.89;54.42;99688.50;4790659;29;103748;-82
2021/04/14 12:03:00;;;;;;;4.47;2.33;;;;;;;7.45;57.74;99687.88;4792752;29;103141;-80
2021/04/14 12:05:27;;;;;;;2.77;2.37;;;;;;;7.05;60.78;99693.13;4794062;29;103343;-80
2021/04/14 12:07:54;;;;;;;4.03;2.40;;;;;;;6.62;63.20;99703.72;4793364;29;103981;-81
2021/04/14 12:10:22;;;;;;;4.70;2.30;;;;;;;6.08;66.73;99697.09;4793746;29;104307;-83
2021/04/14 12:12:49;;;;;;;5.23;2.80;;;;;;;6.01;67.37;99698.25;4786888;29;103220;-82
2021/04/14 12:15:18;;;;;;;4.43;2.63;;;;;;;5.96;68.23;99708.06;4787056;29;103341;-81
2021/04/14 12:17:45;;;;;;;5.17;2.50;;;;;;;6.14;68.15;99701.25;4788786;29;104083;-80
2021/04/14 12:20:14;;;;;;;5.27;3.03;;;;;;;6.00;68.11;99708.81;4793461;29;103821;-76
2021/04/14 12:22:41;;;;;;;5.13;2.60;;;;;;;5.76;69.51;99715.78;4793339;29;103041;-80
2021/04/14 12:25:11;;;;;;;3.17;2.87;;;;;;;5.05;73.25;99724.41;4792573;29;103312;-79
2021/04/14 12:27:39;;;;;;;4.07;2.83;;;;;;;4.85;73.96;99723.38;4766667;29;105885;-79
2021/04/14 12:30:07;;;;;;;3.47;2.87;;;;;;;4.81;74.56;99721.75;4792183;29;104230;-80
2021/04/14 12:32:48;;;;;;;3.30;2.90;;;;;;;5.44;73.60;99708.25;4784936;29;103440;-77
2021/04/14 12:35:15;;;;;;;3.73;2.30;;;;;;;5.80;73.63;99706.91;4793447;29;103515;-76
2021/04/14 12:37:43;;;;;;;2.67;2.33;;;;;;;6.16;70.97;99710.78;4775433;29;111040;-77
2021/04/14 12:40:12;;;;;;;5.13;2.83;;;;;;;6.11;69.92;99710.13;4792532;29;103835;-75
2021/04/14 12:42:56;;;;;;;4.77;3.17;;;;;;;6.41;69.34;99705.44;4793736;29;103237;-76
2021/04/14 12:45:36;;;;;;;4.50;2.50;;;;;;;6.36;68.11;99705.63;4793087;29;103029;-84
2021/04/14 12:48:06;;;;;;;3.37;3.07;;;;;;;6.86;68.52;99702.72;4757615;29;105231;-78
2021/04/14 12:51:03;;;;;;;3.63;2.77;;;;;;;7.21;64.96;99691.56;4808390;29;103787;-80
2021/04/14 12:53:35;;;;;;;4.30;2.50;;;;;;;7.33;65.65;99685.78;4814901;29;103022;-80
2021/04/14 12:56:03;;;;;;;3.47;2.40;;;;;;;7.25;69.00;99695.78;4810260;29;103053;-80
2021/04/14 12:58:34;;;;;;;3.40;2.27;;;;;;;7.38;67.79;99691.66;4792882;29;103297;-76
2021/04/14 13:01:03;;;;;;;3.30;2.70;;;;;;;7.40;68.15;99695.13;4809376;29;105102;-77
2021/04/14 13:03:39;;;;;;;4.93;2.50;;;;;;;7.00;68.07;99685.47;4810636;29;103365;-77
2021/04/14 13:06:12;;;;;;;3.00;2.80;;;;;;;7.54;68.44;99687.47;4790851;29;103405;-77
2021/04/14 13:08:41;;;;;;;4.20;2.60;;;;;;;7.68;66.79;99688.63;4808624;29;104845;-76
2021/04/14 13:11:15;;;;;;;3.87;2.90;;;;;;;7.68;64.80;99684.22;4809086;29;104994;-77
2021/04/14 13:13:44;;;;;;;2.67;2.30;;;;;;;8.19;65.73;99680.97;4809760;29;103000;-79
2021/04/14 13:16:16;;;;;;;2.40;2.20;;;;;;;8.23;66.15;99677.25;4796081;29;102958;-77
2021/04/14 13:18:44;;;;;;;3.43;2.80;;;;;;;8.53;63.11;99680.25;4804206;29;104335;-76
2021/04/14 13:21:24;;;;;;;30.67;5.23;;;;;;;8.83;64.95;99662.91;4814462;29;103966;-77
2021/04/14 13:24:00;;;;;;;4.43;2.60;;;;;;;8.82;63.13;99666.47;4824445;29;103098;-77
2021/04/14 13:26:35;;;;;;;4.60;2.20;;;;;;;8.95;59.72;99670.22;4811799;29;103189;-79
2021/04/14 13:29:12;;;;;;;3.80;2.20;;;;;;;8.88;58.08;99657.41;4808008;29;104311;-75
2021/04/14 13:31:48;;;;;;;3.20;2.67;;;;;;;8.61;62.20;99663.13;4812416;29;103751;-74